Time;durP1;ratioP1;P1;durP2;ratioP2;P2;SDS_P1;SDS_P2;PMS_P1;PMS_P2;Temp;Humidity;BMP_temperature;BMP_pressure;BME280_temperature;BME280_humidity;BME280_pressure;Samples;Min_cycle;Max_cycle;Signal;HPM_P1;HPM_P2
2022/07/20 00:00:49;;;;;;;10.15;3.38;;;;;;;18.07;58.36;96213.50;2064816;28;20054;-37
2022/07/20 00:01:51;;;;;;;8.13;3.35;;;;;;;18.06;58.20;96211.81;2063756;28;20054;-38
2022/07/20 00:02:52;;;;;;;8.48;3.60;;;;;;;18.02;59.34;96210.38;2064036;28;20050;-35
2022/07/20 00:03:53;;;;;;;7.43;3.92;;;;;;;17.97;59.87;96208.06;2072130;28;20585;-36
2022/07/20 00:04:54;;;;;;;9.68;3.50;;;;;;;17.94;59.20;96208.31;2064917;28;20042;-37
2022/07/20 00:05:55;;;;;;;7.75;3.50;;;;;;;17.93;59.24;96216.28;2048748;29;20470;-39
2022/07/20 00:06:57;;;;;;;6.10;3.20;;;;;;;17.91;58.75;96213.78;2056552;28;20046;-40
2022/07/20 00:07:58;;;;;;;6.80;3.00;;;;;;;17.89;58.65;96207.81;2048293;29;20047;-38
2022/07/20 00:11:39;;;;;;;8.00;3.63;;;;;;;17.82;58.59;96212.66;2066750;28;20042;-36
2022/07/20 00:12:40;;;;;;;8.77;3.80;;;;;;;17.82;57.99;96215.28;2071864;28;20431;-37
2022/07/20 00:13:41;;;;;;;7.65;3.28;;;;;;;17.80;57.91;96211.06;2064079;28;20057;-40
2022/07/20 00:14:42;;;;;;;5.72;3.47;;;;;;;17.79;58.27;96210.25;2064491;28;20045;-37
2022/07/20 00:15:44;;;;;;;7.60;3.30;;;;;;;17.77;57.25;96204.22;2064658;28;20042;-39
2022/07/20 00:16:45;;;;;;;9.73;3.33;;;;;;;17.77;57.61;96206.84;2056644;28;20071;-36
2022/07/20 00:17:46;;;;;;;6.85;3.20;;;;;;;17.76;57.54;96199.94;2049057;29;20053;-37
2022/07/20 00:18:47;;;;;;;11.05;3.63;;;;;;;17.78;57.26;96205.09;2064198;28;20046;-40
2022/07/20 00:19:48;;;;;;;8.20;3.78;;;;;;;17.77;56.23;96203.41;2064348;28;20050;-38
2022/07/20 00:20:50;;;;;;;6.50;3.05;;;;;;;17.75;56.35;96205.28;2056336;28;20046;-38
2022/07/20 00:21:51;;;;;;;5.35;3.03;;;;;;;17.74;56.73;96201.81;2056056;28;20046;-37
2022/07/20 00:22:53;;;;;;;5.70;3.25;;;;;;;17.76;57.02;96201.72;2063242;28;20046;-36
2022/07/20 00:23:54;;;;;;;7.70;3.30;;;;;;;17.76;56.29;96199.94;2056341;28;20046;-36
2022/07/20 00:24:55;;;;;;;6.90;3.45;;;;;;;17.79;57.66;96193.66;2048332;28;20050;-36
2022/07/20 00:25:57;;;;;;;9.20;3.38;;;;;;;17.74;56.95;96196.56;2064695;28;20049;-37
2022/07/20 00:26:58;;;;;;;10.13;3.25;;;;;;;17.72;57.24;96187.13;2064230;28;20073;-38
2022/07/20 00:27:59;;;;;;;5.95;3.42;;;;;;;17.72;57.43;96195.88;2056797;28;20500;-37
2022/07/20 00:29:00;;;;;;;12.90;3.53;;;;;;;17.71;57.63;96194.19;2056683;28;20078;-38
2022/07/20 00:30:02;;;;;;;6.45;3.50;;;;;;;17.70;57.51;96192.50;2056725;28;20042;-37
2022/07/20 00:31:03;;;;;;;6.15;3.00;;;;;;;17.71;57.33;96193.34;2064423;28;20046;-37
2022/07/20 00:32:05;;;;;;;4.68;3.08;;;;;;;17.69;57.68;96182.94;2063835;28;20061;-37
2022/07/20 00:33:06;;;;;;;5.32;3.10;;;;;;;17.71;57.03;96190.72;2056027;28;20057;-40
2022/07/20 00:34:07;;;;;;;9.98;3.08;;;;;;;17.68;57.57;96183.91;2064472;28;20526;-37
2022/07/20 00:35:10;;;;;;;7.47;3.22;;;;;;;17.65;56.78;96189.38;2063863;28;20046;-37
2022/07/20 00:36:11;;;;;;;9.35;3.10;;;;;;;17.63;57.76;96186.00;2048126;28;20054;-36
2022/07/20 00:37:12;;;;;;;6.85;3.15;;;;;;;17.60;57.11;96184.44;2040746;29;20051;-38
2022/07/20 00:38:14;;;;;;;7.38;3.30;;;;;;;17.60;57.08;96186.25;2056102;28;20049;-36
2022/07/20 00:39:15;;;;;;;10.85;3.08;;;;;;;17.59;56.71;96192.44;2064299;28;20050;-38
2022/07/20 00:40:16;;;;;;;6.97;3.05;;;;;;;17.58;56.98;96182.88;2056735;28;20053;-40
2022/07/20 00:41:17;;;;;;;8.23;3.00;;;;;;;17.58;57.37;96188.13;2063516;28;20077;-36
2022/07/20 00:42:19;;;;;;;8.10;3.15;;;;;;;17.56;57.50;96182.16;2047689;29;20046;-39
2022/07/20 00:43:20;;;;;;;8.35;3.42;;;;;;;17.57;57.14;96189.09;2056661;28;20412;-37
2022/07/20 00:44:21;;;;;;;6.25;2.97;;;;;;;17.55;56.60;96185.72;2063803;28;20050;-38
2022/07/20 00:45:22;;;;;;;6.88;3.38;;;;;;;17.54;59.27;96190.16;2048463;28;20526;-37
2022/07/20 00:46:23;;;;;;;6.25;3.33;;;;;;;17.54;60.41;96192.78;2056152;28;20417;-38
2022/07/20 00:47:25;;;;;;;5.50;3.20;;;;;;;17.53;61.41;96188.47;2056336;28;20045;-40
2022/07/20 00:48:26;;;;;;;8.40;3.50;;;;;;;17.53;61.35;96192.88;2048660;29;20436;-37
2022/07/20 00:49:27;;;;;;;4.78;2.95;;;;;;;17.50;60.96;96191.31;2048960;28;20812;-38
2022/07/20 00:50:28;;;;;;;8.13;3.08;;;;;;;17.49;62.39;96192.25;2056068;28;20038;-37
2022/07/20 00:51:29;;;;;;;6.40;3.38;;;;;;;17.49;61.46;96196.69;2064250;28;20050;-38
2022/07/20 00:52:31;;;;;;;8.60;3.53;;;;;;;17.47;61.89;96193.31;2063605;28;20054;-41
2022/07/20 00:53:32;;;;;;;6.05;3.33;;;;;;;17.45;60.72;96193.41;2055822;28;20038;-38
2022/07/20 00:54:33;;;;;;;8.90;3.55;;;;;;;17.44;59.88;96199.63;2048763;28;20046;-37
2022/07/20 00:55:35;;;;;;;9.25;3.10;;;;;;;17.39;60.57;96202.56;2056114;28;20050;-38
2022/07/20 00:56:36;;;;;;;6.88;3.50;;;;;;;17.37;59.59;96199.25;2055884;28;20038;-40
2022/07/20 00:57:38;;;;;;;6.72;3.35;;;;;;;17.35;60.22;96200.31;2055787;28;20480;-36
2022/07/20 00:58:39;;;;;;;6.70;3.30;;;;;;;17.33;59.94;96195.16;2055986;28;20047;-38
2022/07/20 00:59:41;;;;;;;7.03;3.28;;;;;;;17.32;59.75;96203.97;2056185;28;20045;-37
2022/07/20 01:00:42;;;;;;;5.78;3.00;;;;;;;17.29;59.90;96201.53;2056236;28;20050;-38
2022/07/20 01:01:44;;;;;;;10.43;3.10;;;;;;;17.25;60.30;96194.03;2055749;28;20050;-42
2022/07/20 01:02:45;;;;;;;7.38;3.30;;;;;;;17.23;60.07;96199.34;2063807;28;20042;-37
2022/07/20 01:03:46;;;;;;;6.88;3.17;;;;;;;17.19;60.99;96197.91;2071795;28;20042;-37
2022/07/20 01:04:47;;;;;;;7.80;3.28;;;;;;;17.16;60.63;96193.72;2063966;28;20057;-39
2022/07/20 01:05:49;;;;;;;7.40;3.20;;;;;;;17.13;60.85;96190.44;2064127;28;20046;-37
2022/07/20 01:06:51;;;;;;;7.88;3.47;;;;;;;17.10;60.91;96188.88;2063685;28;20050;-37
2022/07/20 01:07:52;;;;;;;5.45;3.25;;;;;;;17.06;62.04;96187.44;2040623;29;20042;-39
2022/07/20 01:08:53;;;;;;;5.90;3.30;;;;;;;17.04;61.33;96189.31;2049200;28;20054;-37
2022/07/20 01:09:54;;;;;;;6.18;2.95;;;;;;;17.02;61.41;96185.13;2056617;28;20512;-38
2022/07/20 01:10:56;;;;;;;6.63;3.28;;;;;;;16.97;61.85;96195.94;2048540;28;20095;-37
2022/07/20 01:11:57;;;;;;;9.23;3.10;;;;;;;16.95;61.86;96192.59;2055953;28;20039;-36
2022/07/20 01:12:59;;;;;;;7.20;2.95;;;;;;;16.93;61.62;96195.31;2047833;28;20517;-37
2022/07/20 01:14:04;;;;;;;8.23;3.50;;;;;;;16.91;61.16;96197.19;2048322;28;20043;-39
2022/07/20 01:15:06;;;;;;;9.02;3.50;;;;;;;16.89;62.27;96198.25;2049624;28;20236;-37
2022/07/20 01:16:07;;;;;;;5.88;3.17;;;;;;;16.87;60.97;96194.91;2048889;28;20069;-37
2022/07/20 01:17:09;;;;;;;5.97;3.53;;;;;;;16.83;61.92;96193.44;2048565;28;20051;-36
2022/07/20 01:18:10;;;;;;;7.55;3.47;;;;;;;16.81;63.83;96196.16;2047811;28;20046;-39
2022/07/20 01:19:11;;;;;;;11.07;4.13;;;;;;;16.78;63.08;96191.13;2055475;28;20081;-36
2022/07/20 01:20:15;;;;;;;8.30;3.22;;;;;;;16.81;64.19;96190.91;2064138;28;20050;-38
2022/07/20 01:21:17;;;;;;;11.20;3.88;;;;;;;16.78;63.71;96191.13;2056443;28;20047;-40
2022/07/20 01:22:18;;;;;;;6.82;3.72;;;;;;;16.72;64.45;96189.72;2055604;28;20046;-36
2022/07/20 01:23:19;;;;;;;10.00;3.60;;;;;;;16.71;64.69;96190.69;2040129;29;20046;-38
2022/07/20 01:24:20;;;;;;;9.65;3.70;;;;;;;16.70;65.16;96193.41;2040067;28;20058;-40
2022/07/20 01:25:21;;;;;;;7.88;3.95;;;;;;;16.69;65.62;96194.34;2063826;28;20042;-36
2022/07/20 01:26:23;;;;;;;8.07;3.70;;;;;;;16.65;65.06;96191.13;2048580;28;20059;-37
2022/07/20 01:27:24;;;;;;;10.10;3.63;;;;;;;16.64;64.93;96196.44;2048282;28;20516;-37
2022/07/20 01:28:26;;;;;;;10.93;4.05;;;;;;;16.62;65.65;96191.28;2048336;29;20043;-37
2022/07/20 01:29:28;;;;;;;7.80;3.92;;;;;;;16.60;65.63;96185.34;2064597;28;20057;-36
2022/07/20 01:30:29;;;;;;;10.13;3.60;;;;;;;16.59;64.83;96188.06;2063787;28;20050;-36
2022/07/20 01:31:30;;;;;;;7.70;3.88;;;;;;;16.57;65.00;96188.16;2056210;28;20039;-37
2022/07/20 01:32:31;;;;;;;4.93;3.58;;;;;;;16.57;64.90;96182.91;2048114;28;20516;-38
2022/07/20 01:33:32;;;;;;;8.95;3.42;;;;;;;16.59;63.73;96177.56;2064179;28;20117;-40
2022/07/20 01:34:34;;;;;;;4.70;3.25;;;;;;;16.61;63.41;96181.75;2071996;28;20057;-36
2022/07/20 01:35:35;;;;;;;7.93;3.40;;;;;;;16.56;63.47;96183.03;2064035;28;20049;-38
2022/07/20 01:36:36;;;;;;;10.70;3.72;;;;;;;16.55;63.66;96179.56;2048227;28;20047;-38
2022/07/20 01:37:37;;;;;;;6.65;3.20;;;;;;;16.54;64.37;96178.75;2056149;28;20468;-35
2022/07/20 01:38:38;;;;;;;6.68;2.97;;;;;;;16.52;63.35;96183.25;2064028;28;20046;-37
2022/07/20 01:39:40;;;;;;;8.43;3.65;;;;;;;16.53;64.30;96179.66;2056627;28;20066;-35
2022/07/20 01:40:41;;;;;;;7.93;3.72;;;;;;;16.52;64.02;96172.75;2055749;28;20058;-40
2022/07/20 01:41:42;;;;;;;8.23;3.65;;;;;;;16.51;64.04;96180.72;2055666;28;20054;-36
2022/07/20 01:42:43;;;;;;;9.73;4.18;;;;;;;16.49;64.11;96177.34;2056044;28;20055;-37
2022/07/20 01:43:45;;;;;;;5.78;3.30;;;;;;;16.47;63.56;96174.84;2063951;28;20057;-37
2022/07/20 01:44:46;;;;;;;6.07;3.38;;;;;;;16.45;63.28;96168.88;2063971;28;20358;-36
2022/07/20 01:45:47;;;;;;;7.78;3.58;;;;;;;16.46;63.89;96170.53;2055935;28;20417;-37
2022/07/20 01:46:49;;;;;;;6.55;3.33;;;;;;;16.45;63.48;96179.34;2071961;28;20054;-37
2022/07/20 01:47:50;;;;;;;8.18;3.35;;;;;;;16.42;64.37;96176.94;2063557;28;20409;-35
2022/07/20 01:48:51;;;;;;;7.60;3.25;;;;;;;16.40;64.43;96178.81;2064504;28;20054;-38
2022/07/20 01:49:52;;;;;;;6.53;3.65;;;;;;;16.37;66.33;96173.78;2071773;28;20052;-38
2022/07/20 01:50:54;;;;;;;6.95;3.42;;;;;;;16.37;65.86;96173.78;2072117;28;20057;-38
2022/07/20 01:51:55;;;;;;;6.57;3.55;;;;;;;16.37;66.97;96172.94;2062778;28;20042;-39
2022/07/20 01:52:56;;;;;;;7.57;3.40;;;;;;;16.35;66.28;96161.72;2055914;28;20053;-37
2022/07/20 01:53:57;;;;;;;10.85;3.67;;;;;;;16.33;66.74;96174.91;2056105;28;20050;-36
2022/07/20 01:54:58;;;;;;;7.65;3.65;;;;;;;16.31;66.79;96176.81;2063766;28;20054;-36
2022/07/20 01:56:00;;;;;;;6.03;3.30;;;;;;;16.28;66.27;96169.19;2048659;28;20047;-38
2022/07/20 01:57:01;;;;;;;5.63;3.45;;;;;;;16.26;66.72;96173.69;2056262;28;20438;-37
2022/07/20 01:58:03;;;;;;;10.43;4.03;;;;;;;16.24;67.50;96173.75;2056467;28;20066;-36
2022/07/20 01:59:04;;;;;;;10.02;3.67;;;;;;;16.22;67.59;96172.19;2063851;28;20166;-40
2022/07/20 02:00:07;;;;;;;8.05;3.08;;;;;;;16.21;67.16;96170.53;2055726;28;20046;-36
2022/07/20 02:01:13;;;;;;;6.43;3.95;;;;;;;16.18;67.12;96174.19;2056559;28;20047;-38
2022/07/20 02:02:14;;;;;;;5.40;3.47;;;;;;;16.17;67.46;96171.66;2055307;28;20062;-40
2022/07/20 02:03:15;;;;;;;5.30;3.25;;;;;;;16.15;67.61;96178.81;2055991;28;20054;-37
2022/07/20 02:04:17;;;;;;;6.68;3.13;;;;;;;16.15;66.79;96177.00;2063710;28;20065;-38
2022/07/20 02:05:18;;;;;;;7.82;3.83;;;;;;;16.13;66.89;96167.56;2064431;28;20053;-38
2022/07/20 02:06:19;;;;;;;8.77;3.97;;;;;;;16.12;66.80;96177.22;2063623;28;20054;-36
2022/07/20 02:07:20;;;;;;;6.32;3.42;;;;;;;16.09;66.46;96172.16;2047755;29;20043;-39
2022/07/20 02:08:25;;;;;;;7.20;3.72;;;;;;;16.09;67.49;96178.25;2055858;28;20093;-36
2022/07/20 02:09:26;;;;;;;11.60;3.72;;;;;;;16.06;67.66;96178.47;2041018;29;20048;-35
2022/07/20 02:10:27;;;;;;;7.63;3.70;;;;;;;16.06;67.66;96183.72;2047665;28;20051;-36
2022/07/20 02:11:29;;;;;;;8.43;3.58;;;;;;;16.02;67.63;96176.97;2056306;28;20471;-38
2022/07/20 02:12:30;;;;;;;9.98;3.53;;;;;;;16.03;67.92;96183.06;2055698;28;20452;-38
2022/07/20 02:13:34;;;;;;;7.05;3.83;;;;;;;16.02;68.88;96181.38;2063499;28;20042;-37
2022/07/20 02:14:35;;;;;;;7.50;4.10;;;;;;;16.02;69.87;96182.22;2063671;28;20524;-37
2022/07/20 02:16:58;;;;;;;6.97;3.53;;;;;;;15.97;69.45;96179.06;2063498;28;20049;-36
2022/07/20 02:18:03;;;;;;;6.50;3.70;;;;;;;15.97;69.16;96179.06;2055695;28;20603;-37
2022/07/20 02:19:04;;;;;;;7.45;3.97;;;;;;;15.94;69.19;96186.28;2056352;28;20065;-37
2022/07/20 02:20:06;;;;;;;10.85;4.03;;;;;;;15.88;69.73;96183.13;2064456;28;20046;-37
2022/07/20 02:21:07;;;;;;;6.65;3.60;;;;;;;15.86;70.37;96186.78;2063516;28;20054;-38
2022/07/20 02:22:08;;;;;;;5.15;3.75;;;;;;;15.86;70.19;96182.38;2055689;28;20053;-37
2022/07/20 02:23:10;;;;;;;4.22;3.20;;;;;;;15.85;69.56;96182.47;2063181;28;20077;-36
2022/07/20 02:24:12;;;;;;;6.53;3.55;;;;;;;15.83;70.53;96184.38;2063764;28;20488;-37
2022/07/20 02:25:13;;;;;;;6.28;3.70;;;;;;;15.81;69.46;96183.63;2063741;28;20552;-39
2022/07/20 02:26:15;;;;;;;6.03;3.20;;;;;;;15.81;69.83;96186.25;2063869;28;20054;-37
2022/07/20 02:27:16;;;;;;;6.05;3.75;;;;;;;15.79;69.66;96182.88;2056936;28;20131;-39
2022/07/20 02:28:17;;;;;;;5.32;3.75;;;;;;;15.78;70.46;96184.66;2065044;28;20057;-36
2022/07/20 02:29:18;;;;;;;7.82;3.33;;;;;;;15.75;69.74;96181.41;2049228;29;20062;-35
2022/07/20 02:30:19;;;;;;;8.65;4.25;;;;;;;15.73;69.66;96185.91;2049154;28;20051;-38
2022/07/20 02:31:21;;;;;;;9.02;4.10;;;;;;;15.70;69.31;96183.50;2057918;28;20047;-34
2022/07/20 02:32:23;;;;;;;11.75;3.97;;;;;;;15.66;69.44;96195.88;2049218;28;20118;-36
2022/07/20 02:33:24;;;;;;;8.43;3.78;;;;;;;15.63;69.84;96193.47;2056921;28;20102;-37
2022/07/20 02:34:25;;;;;;;7.00;3.70;;;;;;;15.61;69.84;96195.34;2065218;28;20050;-37
2022/07/20 02:35:26;;;;;;;6.85;3.83;;;;;;;15.59;70.22;96194.63;2073691;28;20034;-35
2022/07/20 02:36:27;;;;;;;5.97;3.85;;;;;;;15.58;69.92;96190.28;2057215;28;20047;-37
2022/07/20 02:37:29;;;;;;;10.40;3.88;;;;;;;15.56;70.31;96190.41;2049118;28;20043;-36
2022/07/20 02:38:30;;;;;;;6.28;3.50;;;;;;;15.56;70.14;96189.59;2065510;28;20050;-35
2022/07/20 02:39:31;;;;;;;6.63;3.65;;;;;;;15.52;69.89;96185.47;2056892;28;20073;-37
2022/07/20 02:40:32;;;;;;;8.98;3.55;;;;;;;15.55;69.39;96186.09;2040994;29;20040;-38
2022/07/20 02:41:34;;;;;;;7.38;3.80;;;;;;;15.53;68.95;96190.63;2056726;28;20046;-40
2022/07/20 02:42:36;;;;;;;6.47;3.75;;;;;;;15.52;69.10;96198.56;2064747;28;20075;-40
2022/07/20 02:43:37;;;;;;;7.63;3.58;;;;;;;15.51;69.40;96196.88;2064665;28;20050;-36
2022/07/20 02:44:38;;;;;;;10.18;3.90;;;;;;;15.52;68.96;96196.78;2065422;28;20408;-37
2022/07/20 02:45:39;;;;;;;7.60;4.10;;;;;;;15.50;68.61;96190.78;2073241;28;20057;-37
2022/07/20 02:46:41;;;;;;;7.68;3.50;;;;;;;15.49;69.08;96190.91;2073535;28;20053;-36
2022/07/20 02:47:43;;;;;;;9.65;4.00;;;;;;;15.46;69.29;96184.09;2056726;28;20070;-36
2022/07/20 02:48:44;;;;;;;5.97;3.92;;;;;;;15.46;69.53;96188.47;2042050;28;20067;-37
2022/07/20 02:49:45;;;;;;;9.27;3.92;;;;;;;15.43;70.31;96190.34;2041909;29;20058;-35
2022/07/20 02:50:47;;;;;;;6.80;3.83;;;;;;;15.44;69.66;96185.94;2048431;28;20047;-35
2022/07/20 02:51:48;;;;;;;8.57;3.92;;;;;;;15.41;69.26;96189.59;2064916;28;20061;-38
2022/07/20 02:52:49;;;;;;;11.38;3.88;;;;;;;15.41;69.73;96180.91;2065020;28;20054;-34
2022/07/20 02:53:50;;;;;;;9.00;3.92;;;;;;;15.39;70.17;96185.41;2065357;28;20427;-34
2022/07/20 02:54:52;;;;;;;8.35;4.07;;;;;;;15.37;70.21;96189.88;2065450;28;20054;-34
2022/07/20 02:55:53;;;;;;;6.32;3.85;;;;;;;15.36;69.98;96185.59;2073263;28;20057;-34
2022/07/20 02:56:54;;;;;;;6.75;3.97;;;;;;;15.34;69.26;96187.47;2065031;28;20050;-35
2022/07/20 02:57:55;;;;;;;6.72;4.10;;;;;;;15.32;69.36;96181.50;2072681;28;20420;-34
2022/07/20 02:58:56;;;;;;;7.80;3.85;;;;;;;15.30;69.14;96184.22;2064983;28;20050;-36
2022/07/20 02:59:58;;;;;;;9.95;4.35;;;;;;;15.30;69.09;96180.75;2057549;28;20039;-35
2022/07/20 03:00:59;;;;;;;9.27;4.00;;;;;;;15.27;69.79;96191.41;2049065;28;20051;-35
2022/07/20 03:02:00;;;;;;;6.82;3.78;;;;;;;15.25;68.84;96185.44;2049300;29;20509;-35
2022/07/20 03:03:01;;;;;;;7.70;3.95;;;;;;;15.25;69.91;96190.66;2057042;28;20046;-35
2022/07/20 03:04:03;;;;;;;8.40;4.30;;;;;;;15.25;70.24;96195.91;2056746;28;20050;-38
2022/07/20 03:05:04;;;;;;;11.10;4.38;;;;;;;15.24;70.89;96191.63;2041121;29;20063;-35
2022/07/20 03:06:06;;;;;;;6.68;4.18;;;;;;;15.21;71.58;96193.50;2049187;28;20051;-35
2022/07/20 03:07:07;;;;;;;11.25;4.57;;;;;;;15.21;72.51;96190.88;2065368;28;20046;-36
2022/07/20 03:08:08;;;;;;;11.88;4.75;;;;;;;15.22;72.63;96191.69;2057387;28;20046;-34
2022/07/20 03:09:09;;;;;;;8.02;4.32;;;;;;;15.22;73.11;96196.94;2065132;28;20214;-34
2022/07/20 03:10:11;;;;;;;8.82;4.45;;;;;;;15.21;73.00;96185.63;2056793;28;20043;-35
2022/07/20 03:11:12;;;;;;;6.78;4.00;;;;;;;15.21;72.51;96192.66;2057432;28;20066;-35
2022/07/20 03:12:13;;;;;;;13.60;4.63;;;;;;;15.21;72.41;96188.25;2072297;28;20046;-35
2022/07/20 03:13:14;;;;;;;6.78;4.07;;;;;;;15.19;73.05;96191.91;2073058;28;20059;-35
2022/07/20 03:14:16;;;;;;;7.72;4.07;;;;;;;15.19;72.66;96191.91;2072842;28;20045;-35
2022/07/20 03:15:17;;;;;;;7.53;4.47;;;;;;;15.16;72.43;96186.88;2072625;28;20057;-34
2022/07/20 03:16:18;;;;;;;6.97;4.20;;;;;;;15.13;72.37;96195.75;2072991;28;20041;-35
2022/07/20 03:17:19;;;;;;;9.07;3.80;;;;;;;15.11;72.52;96188.91;2064598;28;20046;-37
2022/07/20 03:18:20;;;;;;;6.90;3.80;;;;;;;15.09;72.51;96190.78;2064668;28;20065;-36
2022/07/20 03:19:22;;;;;;;7.82;4.65;;;;;;;15.09;72.54;96196.84;2056654;28;20047;-36
2022/07/20 03:20:26;;;;;;;8.35;4.75;;;;;;;15.09;72.94;96190.78;2057509;28;20058;-34
2022/07/20 03:21:27;;;;;;;8.20;4.95;;;;;;;15.09;72.99;96194.25;2073108;28;20145;-37
2022/07/20 03:22:28;;;;;;;6.90;3.97;;;;;;;15.07;72.62;96188.25;2048769;28;20047;-38
2022/07/20 03:23:29;;;;;;;10.55;4.57;;;;;;;15.08;72.51;96202.19;2056913;28;20049;-35
2022/07/20 03:24:30;;;;;;;7.13;4.63;;;;;;;15.07;72.86;96197.88;2064282;28;20053;-35
2022/07/20 03:25:31;;;;;;;7.57;3.95;;;;;;;15.05;72.58;96195.38;2064493;28;20042;-35
2022/07/20 03:26:32;;;;;;;9.73;4.40;;;;;;;15.05;72.71;96194.50;2057151;28;20046;-35
2022/07/20 03:27:34;;;;;;;9.48;4.15;;;;;;;15.03;72.86;96197.25;2041019;29;20044;-36
2022/07/20 03:28:35;;;;;;;12.13;4.32;;;;;;;15.03;72.58;96199.84;2048433;28;20450;-34
2022/07/20 03:29:36;;;;;;;7.30;4.60;;;;;;;15.02;72.57;96194.69;2067840;28;20045;-36
2022/07/20 03:30:37;;;;;;;7.43;3.88;;;;;;;15.00;72.33;96194.81;2065285;28;20042;-33
2022/07/20 03:31:38;;;;;;;10.25;4.90;;;;;;;14.99;72.69;96199.22;2057584;28;20050;-34
2022/07/20 03:32:39;;;;;;;9.80;4.53;;;;;;;15.00;73.06;96194.81;2056391;28;20059;-35
2022/07/20 03:33:41;;;;;;;10.02;4.45;;;;;;;15.00;72.75;96197.44;2057626;28;20077;-34
2022/07/20 03:34:42;;;;;;;8.80;4.25;;;;;;;15.00;73.05;96193.03;2064621;28;20633;-33
2022/07/20 03:35:43;;;;;;;9.20;4.32;;;;;;;15.00;73.02;96197.44;2072845;28;20049;-34
2022/07/20 03:36:44;;;;;;;6.57;4.45;;;;;;;15.00;72.54;96192.19;2064923;28;20046;-37
2022/07/20 03:37:45;;;;;;;8.60;4.88;;;;;;;15.00;72.76;96192.19;2056634;28;20046;-35
2022/07/20 03:38:46;;;;;;;8.20;4.32;;;;;;;14.99;72.44;96195.72;2056795;28;20054;-36
2022/07/20 03:39:48;;;;;;;10.65;4.40;;;;;;;14.98;72.38;96188.84;2057296;28;20062;-33
2022/07/20 03:40:49;;;;;;;8.82;4.90;;;;;;;15.00;71.92;96195.66;2056667;28;20050;-35
2022/07/20 03:41:51;;;;;;;9.65;4.18;;;;;;;14.97;72.38;96189.78;2049291;28;20051;-36
2022/07/20 03:42:52;;;;;;;7.05;4.35;;;;;;;14.96;72.34;96191.53;2056280;28;20445;-36
2022/07/20 03:43:53;;;;;;;6.68;4.43;;;;;;;14.95;72.29;96197.72;2064848;28;20049;-34
2022/07/20 03:44:54;;;;;;;8.88;4.60;;;;;;;14.94;72.17;96193.41;2064892;28;20042;-33
2022/07/20 03:45:56;;;;;;;9.50;4.28;;;;;;;14.95;71.51;96197.72;2064503;28;20050;-35
2022/07/20 03:46:57;;;;;;;8.75;5.05;;;;;;;14.98;71.20;96194.06;2064958;28;20054;-36
2022/07/20 03:47:58;;;;;;;8.52;4.75;;;;;;;14.99;71.40;96190.50;2057159;28;20516;-33
2022/07/20 03:48:59;;;;;;;6.78;4.43;;;;;;;15.01;72.24;96193.88;2056726;28;20062;-33
2022/07/20 03:50:00;;;;;;;13.48;5.35;;;;;;;15.03;72.73;96197.25;2056803;28;20062;-33
2022/07/20 03:51:02;;;;;;;9.23;5.00;;;;;;;15.05;73.00;96192.75;2041392;28;20541;-34
2022/07/20 03:52:03;;;;;;;9.85;5.10;;;;;;;15.04;72.94;96193.69;2056304;28;20073;-35
2022/07/20 03:53:04;;;;;;;7.32;4.88;;;;;;;15.06;73.14;96198.81;2056596;28;20054;-32
2022/07/20 03:54:06;;;;;;;7.00;4.45;;;;;;;15.07;73.26;96196.09;2048572;29;20054;-34
2022/07/20 03:55:07;;;;;;;8.90;5.03;;;;;;;15.06;73.23;96201.44;2065060;28;20050;-35
2022/07/20 03:56:09;;;;;;;6.22;4.32;;;;;;;15.06;72.33;96202.28;2064984;28;20046;-31
2022/07/20 03:57:10;;;;;;;8.43;4.38;;;;;;;15.09;72.05;96203.88;2071926;28;20048;-33
2022/07/20 03:58:12;;;;;;;9.82;4.43;;;;;;;15.12;71.99;96206.28;2064530;28;20046;-32
2022/07/20 03:59:13;;;;;;;11.13;4.90;;;;;;;15.13;72.09;96198.34;2065070;28;20077;-33
2022/07/20 04:00:14;;;;;;;12.85;4.65;;;;;;;15.17;71.54;96196.38;2056611;28;20050;-33
2022/07/20 04:01:16;;;;;;;9.05;4.45;;;;;;;15.19;71.44;96208.44;2048963;28;20058;-32
2022/07/20 04:02:17;;;;;;;8.25;4.80;;;;;;;15.21;71.20;96195.28;2056545;28;20428;-32
2022/07/20 04:03:18;;;;;;;11.98;4.78;;;;;;;15.23;70.95;96203.84;2072664;28;20065;-33
2022/07/20 04:04:19;;;;;;;10.55;4.75;;;;;;;15.26;70.16;96202.81;2065442;28;20050;-35
2022/07/20 04:05:20;;;;;;;9.88;5.10;;;;;;;15.30;70.78;96201.69;2064283;28;20054;-35
2022/07/20 04:06:22;;;;;;;7.57;4.47;;;;;;;15.32;70.73;96202.44;2048597;29;20046;-36
2022/07/20 04:07:23;;;;;;;9.02;4.85;;;;;;;15.33;70.02;96202.31;2049034;29;20120;-33
2022/07/20 04:08:24;;;;;;;10.27;4.40;;;;;;;15.35;70.50;96195.22;2063916;28;20038;-35
2022/07/20 04:10:46;;;;;;;9.88;4.95;;;;;;;15.44;70.11;96204.25;2067519;28;20050;-34
2022/07/20 04:11:48;;;;;;;7.72;4.35;;;;;;;15.46;70.36;96198.94;2071960;28;20053;-38
2022/07/20 04:12:49;;;;;;;9.35;4.30;;;;;;;15.50;70.47;96203.03;2072342;28;20130;-36
2022/07/20 04:13:51;;;;;;;7.90;4.45;;;;;;;15.54;70.42;96202.75;2056487;28;20072;-38
2022/07/20 04:14:52;;;;;;;10.95;4.25;;;;;;;15.61;70.35;96205.81;2048794;28;20054;-38
2022/07/20 04:15:53;;;;;;;7.05;4.32;;;;;;;15.68;69.97;96199.25;2064409;28;20042;-34
2022/07/20 04:16:54;;;;;;;8.52;4.68;;;;;;;15.78;69.34;96199.53;2073058;28;20416;-36
2022/07/20 04:17:56;;;;;;;13.13;5.72;;;;;;;15.85;68.07;96196.44;2064454;28;20057;-34
2022/07/20 04:18:57;;;;;;;10.50;4.75;;;;;;;15.89;68.45;96194.44;2056520;28;20126;-34
2022/07/20 04:19:58;;;;;;;9.32;4.68;;;;;;;15.91;67.87;96187.31;2064718;28;20061;-38
2022/07/20 04:20:59;;;;;;;8.30;4.47;;;;;;;15.95;68.23;96201.88;2064945;28;20412;-34
2022/07/20 04:22:01;;;;;;;8.95;4.68;;;;;;;15.97;68.51;96197.41;2064056;28;20431;-35
2022/07/20 04:23:02;;;;;;;9.95;4.93;;;;;;;15.91;68.88;96199.59;2055979;28;20063;-38
2022/07/20 04:24:03;;;;;;;9.07;4.97;;;;;;;15.91;69.59;96199.59;2041283;28;20051;-35
2022/07/20 04:25:05;;;;;;;8.43;4.43;;;;;;;15.96;68.77;96205.34;2049119;28;20127;-33
2022/07/20 04:26:06;;;;;;;7.20;4.50;;;;;;;16.01;68.84;96206.75;2056321;28;20126;-38
2022/07/20 04:27:07;;;;;;;9.20;5.05;;;;;;;16.06;68.23;96209.91;2064036;28;20046;-37
2022/07/20 04:28:09;;;;;;;8.50;4.78;;;;;;;16.12;68.66;96205.16;2063860;28;20042;-37
2022/07/20 04:29:10;;;;;;;9.65;4.60;;;;;;;16.16;68.58;96204.03;2064555;28;20516;-36
2022/07/20 04:30:12;;;;;;;8.98;4.40;;;;;;;16.22;68.66;96204.47;2071553;28;20054;-38
2022/07/20 04:31:13;;;;;;;8.80;4.40;;;;;;;16.26;69.22;96210.34;2056060;28;20071;-40
2022/07/20 04:32:14;;;;;;;10.32;4.82;;;;;;;16.31;70.67;96208.28;2055929;28;20054;-36
2022/07/20 04:33:15;;;;;;;8.20;4.70;;;;;;;16.28;69.50;96211.09;2072291;28;20052;-37
2022/07/20 04:34:17;;;;;;;7.53;4.25;;;;;;;16.26;70.54;96219.06;2080630;28;20052;-40
2022/07/20 04:35:18;;;;;;;8.75;4.40;;;;;;;16.28;71.57;96213.72;2071977;28;20057;-36
2022/07/20 04:36:20;;;;;;;16.63;5.20;;;;;;;16.33;70.31;96216.84;2064636;28;20421;-37
2022/07/20 04:37:21;;;;;;;8.90;4.68;;;;;;;16.34;70.04;96218.53;2056115;28;20042;-37
2022/07/20 04:38:23;;;;;;;8.55;5.05;;;;;;;16.39;68.51;96221.69;2056493;28;20398;-36
2022/07/20 04:39:24;;;;;;;8.63;4.82;;;;;;;16.46;66.14;96224.75;2065223;28;20045;-35
2022/07/20 04:40:25;;;;;;;10.32;4.90;;;;;;;16.52;66.65;96230.44;2055994;28;20049;-39
2022/07/20 04:41:26;;;;;;;9.77;4.75;;;;;;;16.59;65.86;96225.59;2048748;28;20062;-37
2022/07/20 04:42:28;;;;;;;9.05;4.63;;;;;;;16.66;65.70;96228.66;2056451;28;20042;-35
2022/07/20 04:43:29;;;;;;;11.13;4.95;;;;;;;16.69;64.85;96225.81;2048531;29;20051;-37
2022/07/20 04:44:30;;;;;;;11.13;5.10;;;;;;;16.69;64.17;96224.03;2056074;28;20058;-37
2022/07/20 04:45:31;;;;;;;10.35;4.60;;;;;;;16.76;64.20;96224.47;2055884;28;20476;-38
2022/07/20 04:46:33;;;;;;;12.45;4.85;;;;;;;16.78;64.55;96227.00;2063911;28;20046;-36
2022/07/20 04:47:34;;;;;;;7.00;4.47;;;;;;;16.79;64.72;96233.94;2064596;28;20053;-37
2022/07/20 04:48:35;;;;;;;9.43;4.85;;;;;;;16.78;64.12;96229.63;2056231;28;20035;-35
2022/07/20 04:49:36;;;;;;;9.02;4.32;;;;;;;16.81;64.34;96230.25;2055331;28;20425;-35
2022/07/20 04:50:37;;;;;;;8.10;5.20;;;;;;;16.83;63.79;96230.97;2056407;28;20042;-38
2022/07/20 04:51:38;;;;;;;9.73;5.07;;;;;;;16.83;64.28;96230.97;2063896;28;20050;-38
2022/07/20 04:52:40;;;;;;;8.88;5.07;;;;;;;16.87;64.76;96240.34;2072033;28;20052;-38
2022/07/20 04:53:41;;;;;;;9.60;4.72;;;;;;;16.85;64.90;96234.34;2064464;28;20046;-37